sensor_id;sensor_type;location;lat;lon;timestamp;P1;durP1;ratioP1;P2;durP2;ratioP2
43088;SDS011;28709;52.030;5.652;2022-08-01T00:02:11;1.33;;;1.10;;
43088;SDS011;28709;52.030;5.652;2022-08-01T00:04:37;3.53;;;1.70;;
43088;SDS011;28709;52.030;5.652;2022-08-01T00:07:03;2.90;;;1.30;;
43088;SDS011;28709;52.030;5.652;2022-08-01T00:09:29;1.35;;;1.10;;
43088;SDS011;28709;52.030;5.652;2022-08-01T00:11:54;1.65;;;1.33;;
43088;SDS011;28709;52.030;5.652;2022-08-01T00:14:20;1.52;;;1.40;;
43088;SDS011;28709;52.030;5.652;2022-08-01T00:16:46;1.20;;;1.10;;
43088;SDS011;28709;52.030;5.652;2022-08-01T00:19:11;0.82;;;0.80;;
43088;SDS011;28709;52.030;5.652;2022-08-01T00:21:37;0.90;;;0.82;;
43088;SDS011;28709;52.030;5.652;2022-08-01T00:24:03;2.25;;;0.82;;
43088;SDS011;28709;52.030;5.652;2022-08-01T00:26:28;0.50;;;0.50;;
43088;SDS011;28709;52.030;5.652;2022-08-01T00:28:54;0.77;;;0.77;;
43088;SDS011;28709;52.030;5.652;2022-08-01T00:31:20;0.73;;;0.73;;
43088;SDS011;28709;52.030;5.652;2022-08-01T00:33:45;0.90;;;0.90;;
43088;SDS011;28709;52.030;5.652;2022-08-01T00:36:11;0.80;;;0.80;;
43088;SDS011;28709;52.030;5.652;2022-08-01T00:38:36;0.73;;;0.73;;
43088;SDS011;28709;52.030;5.652;2022-08-01T00:41:02;0.70;;;0.65;;
43088;SDS011;28709;52.030;5.652;2022-08-01T00:43:28;1.25;;;0.95;;
43088;SDS011;28709;52.030;5.652;2022-08-01T00:45:53;0.98;;;0.77;;
43088;SDS011;28709;52.030;5.652;2022-08-01T00:48:19;0.75;;;0.75;;
43088;SDS011;28709;52.030;5.652;2022-08-01T00:50:45;0.70;;;0.68;;
43088;SDS011;28709;52.030;5.652;2022-08-01T00:53:11;0.70;;;0.70;;
43088;SDS011;28709;52.030;5.652;2022-08-01T00:55:37;0.60;;;0.60;;
43088;SDS011;28709;52.030;5.652;2022-08-01T00:58:02;0.65;;;0.65;;
43088;SDS011;28709;52.030;5.652;2022-08-01T01:00:29;0.82;;;0.65;;
43088;SDS011;28709;52.030;5.652;2022-08-01T01:02:54;1.27;;;0.80;;
43088;SDS011;28709;52.030;5.652;2022-08-01T01:05:20;1.33;;;1.00;;
43088;SDS011;28709;52.030;5.652;2022-08-01T01:08:02;1.10;;;1.00;;
43088;SDS011;28709;52.030;5.652;2022-08-01T01:10:34;1.10;;;0.80;;
43088;SDS011;28709;52.030;5.652;2022-08-01T01:13:09;1.45;;;0.93;;
43088;SDS011;28709;52.030;5.652;2022-08-01T01:15:56;1.42;;;0.95;;
43088;SDS011;28709;52.030;5.652;2022-08-01T01:18:27;1.00;;;0.73;;
43088;SDS011;28709;52.030;5.652;2022-08-01T01:21:05;0.77;;;0.77;;
43088;SDS011;28709;52.030;5.652;2022-08-01T01:29:16;0.45;;;0.40;;
43088;SDS011;28709;52.030;5.652;2022-08-01T01:31:52;1.08;;;0.68;;
43088;SDS011;28709;52.030;5.652;2022-08-01T01:34:24;1.88;;;0.75;;
43088;SDS011;28709;52.030;5.652;2022-08-01T01:36:52;1.50;;;1.00;;
43088;SDS011;28709;52.030;5.652;2022-08-01T01:39:19;0.65;;;0.52;;
43088;SDS011;28709;52.030;5.652;2022-08-01T01:41:48;0.57;;;0.55;;
43088;SDS011;28709;52.030;5.652;2022-08-01T01:44:16;0.88;;;0.82;;
43088;SDS011;28709;52.030;5.652;2022-08-01T01:46:43;0.50;;;0.50;;
43088;SDS011;28709;52.030;5.652;2022-08-01T01:49:09;0.43;;;0.40;;
43088;SDS011;28709;52.030;5.652;2022-08-01T01:51:36;0.30;;;0.30;;
43088;SDS011;28709;52.030;5.652;2022-08-01T01:54:03;0.70;;;0.50;;
43088;SDS011;28709;52.030;5.652;2022-08-01T01:56:31;0.77;;;0.77;;
43088;SDS011;28709;52.030;5.652;2022-08-01T01:59:00;1.02;;;0.45;;
43088;SDS011;28709;52.030;5.652;2022-08-01T02:01:28;0.50;;;0.50;;
43088;SDS011;28709;52.030;5.652;2022-08-01T02:03:56;1.25;;;0.90;;
43088;SDS011;28709;52.030;5.652;2022-08-01T02:06:23;0.60;;;0.60;;
43088;SDS011;28709;52.030;5.652;2022-08-01T02:08:50;0.68;;;0.68;;
43088;SDS011;28709;52.030;5.652;2022-08-01T02:11:19;1.20;;;0.70;;
43088;SDS011;28709;52.030;5.652;2022-08-01T02:13:52;1.13;;;0.70;;
43088;SDS011;28709;52.030;5.652;2022-08-01T02:18:47;1.15;;;1.00;;
43088;SDS011;28709;52.030;5.652;2022-08-01T02:21:13;1.17;;;1.08;;
43088;SDS011;28709;52.030;5.652;2022-08-01T02:23:44;2.08;;;1.08;;
43088;SDS011;28709;52.030;5.652;2022-08-01T02:26:15;0.88;;;0.80;;
43088;SDS011;28709;52.030;5.652;2022-08-01T02:29:02;1.15;;;0.82;;
43088;SDS011;28709;52.030;5.652;2022-08-01T02:31:32;0.50;;;0.50;;
43088;SDS011;28709;52.030;5.652;2022-08-01T02:34:02;1.08;;;0.95;;
43088;SDS011;28709;52.030;5.652;2022-08-01T02:36:32;1.92;;;1.30;;
43088;SDS011;28709;52.030;5.652;2022-08-01T02:39:00;1.35;;;1.02;;
43088;SDS011;28709;52.030;5.652;2022-08-01T02:41:28;0.73;;;0.70;;
43088;SDS011;28709;52.030;5.652;2022-08-01T02:43:59;0.75;;;0.57;;
43088;SDS011;28709;52.030;5.652;2022-08-01T02:46:35;1.20;;;0.70;;
43088;SDS011;28709;52.030;5.652;2022-08-01T02:49:06;0.60;;;0.60;;
43088;SDS011;28709;52.030;5.652;2022-08-01T02:51:35;0.60;;;0.60;;
43088;SDS011;28709;52.030;5.652;2022-08-01T02:54:02;0.80;;;0.55;;
43088;SDS011;28709;52.030;5.652;2022-08-01T02:56:31;0.80;;;0.80;;
43088;SDS011;28709;52.030;5.652;2022-08-01T02:59:04;1.10;;;1.00;;
43088;SDS011;28709;52.030;5.652;2022-08-01T03:01:33;1.05;;;1.00;;
43088;SDS011;28709;52.030;5.652;2022-08-01T03:04:00;1.60;;;1.27;;
43088;SDS011;28709;52.030;5.652;2022-08-01T03:06:28;0.90;;;0.80;;
43088;SDS011;28709;52.030;5.652;2022-08-01T03:08:54;1.02;;;0.82;;
43088;SDS011;28709;52.030;5.652;2022-08-01T03:11:22;0.60;;;0.60;;
43088;SDS011;28709;52.030;5.652;2022-08-01T03:13:50;0.73;;;0.60;;
43088;SDS011;28709;52.030;5.652;2022-08-01T03:16:18;0.63;;;0.47;;
43088;SDS011;28709;52.030;5.652;2022-08-01T03:18:46;1.00;;;0.70;;
43088;SDS011;28709;52.030;5.652;2022-08-01T03:21:14;1.05;;;0.95;;
43088;SDS011;28709;52.030;5.652;2022-08-01T03:23:42;1.00;;;0.90;;
43088;SDS011;28709;52.030;5.652;2022-08-01T03:26:09;0.60;;;0.50;;
43088;SDS011;28709;52.030;5.652;2022-08-01T03:28:35;0.60;;;0.52;;
43088;SDS011;28709;52.030;5.652;2022-08-01T03:31:03;0.80;;;0.60;;
43088;SDS011;28709;52.030;5.652;2022-08-01T03:33:30;0.45;;;0.40;;
43088;SDS011;28709;52.030;5.652;2022-08-01T03:35:55;0.80;;;0.63;;
43088;SDS011;28709;52.030;5.652;2022-08-01T03:38:25;0.60;;;0.30;;
43088;SDS011;28709;52.030;5.652;2022-08-01T03:40:59;0.80;;;0.70;;
43088;SDS011;28709;52.030;5.652;2022-08-01T03:43:37;0.85;;;0.40;;
43088;SDS011;28709;52.030;5.652;2022-08-01T03:46:07;0.40;;;0.40;;
43088;SDS011;28709;52.030;5.652;2022-08-01T03:48:37;0.35;;;0.30;;
43088;SDS011;28709;52.030;5.652;2022-08-01T03:51:07;0.60;;;0.50;;
43088;SDS011;28709;52.030;5.652;2022-08-01T03:53:34;0.30;;;0.30;;
43088;SDS011;28709;52.030;5.652;2022-08-01T03:56:02;0.47;;;0.47;;
43088;SDS011;28709;52.030;5.652;2022-08-01T03:58:29;0.20;;;0.20;;
43088;SDS011;28709;52.030;5.652;2022-08-01T04:00:56;0.40;;;0.40;;
43088;SDS011;28709;52.030;5.652;2022-08-01T04:03:23;0.68;;;0.65;;
43088;SDS011;28709;52.030;5.652;2022-08-01T04:05:49;0.60;;;0.57;;
43088;SDS011;28709;52.030;5.652;2022-08-01T04:08:15;0.30;;;0.30;;
43088;SDS011;28709;52.030;5.652;2022-08-01T04:10:41;1.52;;;0.90;;
43088;SDS011;28709;52.030;5.652;2022-08-01T04:13:06;0.57;;;0.57;;
43088;SDS011;28709;52.030;5.652;2022-08-01T04:15:32;0.80;;;0.65;;
43088;SDS011;28709;52.030;5.652;2022-08-01T04:17:58;0.77;;;0.70;;
43088;SDS011;28709;52.030;5.652;2022-08-01T04:20:23;0.65;;;0.50;;
43088;SDS011;28709;52.030;5.652;2022-08-01T04:22:49;0.80;;;0.70;;
43088;SDS011;28709;52.030;5.652;2022-08-01T04:25:25;0.70;;;0.60;;
43088;SDS011;28709;52.030;5.652;2022-08-01T04:27:59;1.58;;;0.57;;
43088;SDS011;28709;52.030;5.652;2022-08-01T04:30:29;1.30;;;0.80;;
43088;SDS011;28709;52.030;5.652;2022-08-01T04:32:59;0.70;;;0.70;;
43088;SDS011;28709;52.030;5.652;2022-08-01T04:35:26;0.75;;;0.50;;
43088;SDS011;28709;52.030;5.652;2022-08-01T04:37:52;0.40;;;0.40;;
43088;SDS011;28709;52.030;5.652;2022-08-01T04:40:19;0.52;;;0.47;;
43088;SDS011;28709;52.030;5.652;2022-08-01T04:42:47;0.43;;;0.43;;
43088;SDS011;28709;52.030;5.652;2022-08-01T04:45:14;0.55;;;0.40;;
43088;SDS011;28709;52.030;5.652;2022-08-01T04:47:40;0.77;;;0.47;;
43088;SDS011;28709;52.030;5.652;2022-08-01T04:50:08;0.20;;;0.20;;
43088;SDS011;28709;52.030;5.652;2022-08-01T04:52:35;0.50;;;0.50;;
43088;SDS011;28709;52.030;5.652;2022-08-01T04:55:02;1.25;;;0.77;;
43088;SDS011;28709;52.030;5.652;2022-08-01T04:57:29;0.40;;;0.40;;
43088;SDS011;28709;52.030;5.652;2022-08-01T04:59:55;0.40;;;0.40;;
43088;SDS011;28709;52.030;5.652;2022-08-01T05:02:22;0.75;;;0.65;;
43088;SDS011;28709;52.030;5.652;2022-08-01T05:04:48;0.63;;;0.60;;
43088;SDS011;28709;52.030;5.652;2022-08-01T05:07:14;0.82;;;0.68;;
43088;SDS011;28709;52.030;5.652;2022-08-01T05:09:41;0.70;;;0.40;;
43088;SDS011;28709;52.030;5.652;2022-08-01T05:12:07;0.47;;;0.47;;
43088;SDS011;28709;52.030;5.652;2022-08-01T05:14:33;0.52;;;0.50;;
43088;SDS011;28709;52.030;5.652;2022-08-01T05:17:00;0.52;;;0.52;;
43088;SDS011;28709;52.030;5.652;2022-08-01T05:19:29;0.57;;;0.55;;
43088;SDS011;28709;52.030;5.652;2022-08-01T05:22:01;0.55;;;0.55;;
43088;SDS011;28709;52.030;5.652;2022-08-01T05:24:30;0.70;;;0.70;;
43088;SDS011;28709;52.030;5.652;2022-08-01T05:26:56;0.70;;;0.70;;
43088;SDS011;28709;52.030;5.652;2022-08-01T05:29:22;0.85;;;0.65;;
43088;SDS011;28709;52.030;5.652;2022-08-01T05:31:48;0.73;;;0.70;;
43088;SDS011;28709;52.030;5.652;2022-08-01T05:34:14;0.80;;;0.60;;
43088;SDS011;28709;52.030;5.652;2022-08-01T05:36:39;0.98;;;0.90;;
43088;SDS011;28709;52.030;5.652;2022-08-01T05:39:05;0.70;;;0.70;;
43088;SDS011;28709;52.030;5.652;2022-08-01T05:41:31;0.93;;;0.88;;
43088;SDS011;28709;52.030;5.652;2022-08-01T05:43:57;1.63;;;0.98;;
43088;SDS011;28709;52.030;5.652;2022-08-01T05:46:22;0.63;;;0.63;;
43088;SDS011;28709;52.030;5.652;2022-08-01T05:48:48;0.50;;;0.50;;
43088;SDS011;28709;52.030;5.652;2022-08-01T05:51:17;0.50;;;0.50;;
43088;SDS011;28709;52.030;5.652;2022-08-01T05:53:42;0.40;;;0.40;;
43088;SDS011;28709;52.030;5.652;2022-08-01T05:56:09;0.50;;;0.40;;
43088;SDS011;28709;52.030;5.652;2022-08-01T05:58:34;0.60;;;0.30;;
43088;SDS011;28709;52.030;5.652;2022-08-01T06:01:00;0.40;;;0.40;;
43088;SDS011;28709;52.030;5.652;2022-08-01T06:03:26;0.38;;;0.38;;
43088;SDS011;28709;52.030;5.652;2022-08-01T06:05:56;0.30;;;0.30;;
43088;SDS011;28709;52.030;5.652;2022-08-01T06:08:25;0.30;;;0.30;;
43088;SDS011;28709;52.030;5.652;2022-08-01T06:10:51;0.30;;;0.30;;
43088;SDS011;28709;52.030;5.652;2022-08-01T06:13:16;0.43;;;0.43;;
43088;SDS011;28709;52.030;5.652;2022-08-01T06:15:43;0.30;;;0.30;;
43088;SDS011;28709;52.030;5.652;2022-08-01T06:18:09;0.20;;;0.20;;
43088;SDS011;28709;52.030;5.652;2022-08-01T06:20:35;0.55;;;0.43;;
43088;SDS011;28709;52.030;5.652;2022-08-01T06:23:00;0.25;;;0.22;;
43088;SDS011;28709;52.030;5.652;2022-08-01T06:25:26;0.20;;;0.20;;
43088;SDS011;28709;52.030;5.652;2022-08-01T06:27:52;0.20;;;0.20;;
43088;SDS011;28709;52.030;5.652;2022-08-01T06:30:18;0.30;;;0.30;;
43088;SDS011;28709;52.030;5.652;2022-08-01T06:32:44;0.10;;;0.10;;
43088;SDS011;28709;52.030;5.652;2022-08-01T06:35:16;0.25;;;0.25;;
43088;SDS011;28709;52.030;5.652;2022-08-01T06:37:42;0.45;;;0.20;;
43088;SDS011;28709;52.030;5.652;2022-08-01T06:40:10;0.10;;;0.10;;
43088;SDS011;28709;52.030;5.652;2022-08-01T06:42:37;0.10;;;0.10;;
43088;SDS011;28709;52.030;5.652;2022-08-01T06:45:03;0.10;;;0.10;;
43088;SDS011;28709;52.030;5.652;2022-08-01T06:47:30;0.50;;;0.10;;
43088;SDS011;28709;52.030;5.652;2022-08-01T06:49:56;0.20;;;0.20;;
43088;SDS011;28709;52.030;5.652;2022-08-01T06:52:21;0.10;;;0.10;;
43088;SDS011;28709;52.030;5.652;2022-08-01T06:54:47;0.13;;;0.10;;
43088;SDS011;28709;52.030;5.652;2022-08-01T06:57:12;0.20;;;0.20;;
43088;SDS011;28709;52.030;5.652;2022-08-01T06:59:38;0.10;;;0.10;;
43088;SDS011;28709;52.030;5.652;2022-08-01T07:02:04;0.10;;;0.10;;
43088;SDS011;28709;52.030;5.652;2022-08-01T07:04:30;0.10;;;0.10;;
43088;SDS011;28709;52.030;5.652;2022-08-01T07:06:57;0.08;;;0.08;;
43088;SDS011;28709;52.030;5.652;2022-08-01T07:09:22;0.28;;;0.20;;
43088;SDS011;28709;52.030;5.652;2022-08-01T07:11:48;0.10;;;0.10;;
43088;SDS011;28709;52.030;5.652;2022-08-01T07:14:15;0.20;;;0.10;;
43088;SDS011;28709;52.030;5.652;2022-08-01T07:16:41;0.00;;;0.00;;
43088;SDS011;28709;52.030;5.652;2022-08-01T07:19:06;0.15;;;0.15;;
43088;SDS011;28709;52.030;5.652;2022-08-01T07:21:32;0.25;;;0.25;;
43088;SDS011;28709;52.030;5.652;2022-08-01T07:23:58;0.20;;;0.20;;
43088;SDS011;28709;52.030;5.652;2022-08-01T07:26:24;0.38;;;0.25;;
43088;SDS011;28709;52.030;5.652;2022-08-01T07:28:51;0.20;;;0.20;;
43088;SDS011;28709;52.030;5.652;2022-08-01T07:31:18;0.50;;;0.40;;
43088;SDS011;28709;52.030;5.652;2022-08-01T07:33:43;0.10;;;0.10;;
43088;SDS011;28709;52.030;5.652;2022-08-01T07:36:09;0.25;;;0.25;;
43088;SDS011;28709;52.030;5.652;2022-08-01T07:38:35;1.80;;;0.50;;
43088;SDS011;28709;52.030;5.652;2022-08-01T07:41:00;0.47;;;0.40;;
43088;SDS011;28709;52.030;5.652;2022-08-01T07:43:27;0.45;;;0.20;;
43088;SDS011;28709;52.030;5.652;2022-08-01T07:45:53;0.40;;;0.40;;
43088;SDS011;28709;52.030;5.652;2022-08-01T07:48:18;0.10;;;0.10;;
43088;SDS011;28709;52.030;5.652;2022-08-01T07:50:48;0.28;;;0.28;;
43088;SDS011;28709;52.030;5.652;2022-08-01T07:53:17;0.20;;;0.20;;
43088;SDS011;28709;52.030;5.652;2022-08-01T07:55:43;0.20;;;0.20;;
43088;SDS011;28709;52.030;5.652;2022-08-01T07:58:08;0.10;;;0.10;;
43088;SDS011;28709;52.030;5.652;2022-08-01T08:00:34;0.00;;;0.00;;
43088;SDS011;28709;52.030;5.652;2022-08-01T08:03:00;0.40;;;0.10;;
43088;SDS011;28709;52.030;5.652;2022-08-01T08:05:26;0.10;;;0.10;;
43088;SDS011;28709;52.030;5.652;2022-08-01T08:07:52;0.10;;;0.10;;
43088;SDS011;28709;52.030;5.652;2022-08-01T08:10:18;0.10;;;0.10;;
43088;SDS011;28709;52.030;5.652;2022-08-01T08:12:44;0.28;;;0.10;;
43088;SDS011;28709;52.030;5.652;2022-08-01T08:15:11;0.17;;;0.10;;
43088;SDS011;28709;52.030;5.652;2022-08-01T08:17:37;0.03;;;0.00;;
43088;SDS011;28709;52.030;5.652;2022-08-01T08:20:05;0.15;;;0.10;;
43088;SDS011;28709;52.030;5.652;2022-08-01T08:22:32;0.10;;;0.10;;
43088;SDS011;28709;52.030;5.652;2022-08-01T08:24:57;0.25;;;0.20;;
43088;SDS011;28709;52.030;5.652;2022-08-01T08:27:23;0.45;;;0.38;;
43088;SDS011;28709;52.030;5.652;2022-08-01T08:29:49;0.30;;;0.30;;
43088;SDS011;28709;52.030;5.652;2022-08-01T08:32:14;0.32;;;0.25;;
43088;SDS011;28709;52.030;5.652;2022-08-01T08:34:40;0.13;;;0.13;;
43088;SDS011;28709;52.030;5.652;2022-08-01T08:37:06;0.30;;;0.30;;
43088;SDS011;28709;52.030;5.652;2022-08-01T08:39:32;0.20;;;0.20;;
43088;SDS011;28709;52.030;5.652;2022-08-01T08:42:01;0.20;;;0.20;;
43088;SDS011;28709;52.030;5.652;2022-08-01T08:44:30;0.40;;;0.40;;
43088;SDS011;28709;52.030;5.652;2022-08-01T08:46:56;0.20;;;0.20;;
43088;SDS011;28709;52.030;5.652;2022-08-01T08:49:26;0.20;;;0.20;;
43088;SDS011;28709;52.030;5.652;2022-08-01T08:51:53;0.20;;;0.20;;
43088;SDS011;28709;52.030;5.652;2022-08-01T08:54:23;0.10;;;0.10;;
43088;SDS011;28709;52.030;5.652;2022-08-01T08:56:50;0.10;;;0.10;;
43088;SDS011;28709;52.030;5.652;2022-08-01T08:59:17;0.20;;;0.20;;
43088;SDS011;28709;52.030;5.652;2022-08-01T09:01:44;0.28;;;0.28;;
43088;SDS011;28709;52.030;5.652;2022-08-01T09:04:10;1.85;;;0.57;;
43088;SDS011;28709;52.030;5.652;2022-08-01T09:06:36;1.23;;;0.77;;
43088;SDS011;28709;52.030;5.652;2022-08-01T09:09:03;0.57;;;0.50;;
43088;SDS011;28709;52.030;5.652;2022-08-01T09:11:30;0.95;;;0.60;;
43088;SDS011;28709;52.030;5.652;2022-08-01T09:14:03;2.65;;;1.05;;
43088;SDS011;28709;52.030;5.652;2022-08-01T09:19:49;3.08;;;1.00;;
43088;SDS011;28709;52.030;5.652;2022-08-01T09:22:20;1.23;;;0.60;;
43088;SDS011;28709;52.030;5.652;2022-08-01T09:25:02;0.95;;;0.80;;
43088;SDS011;28709;52.030;5.652;2022-08-01T09:27:36;2.45;;;1.10;;
43088;SDS011;28709;52.030;5.652;2022-08-01T09:30:17;2.35;;;0.88;;
43088;SDS011;28709;52.030;5.652;2022-08-01T09:32:55;1.10;;;0.70;;
43088;SDS011;28709;52.030;5.652;2022-08-01T09:35:26;1.70;;;0.80;;
43088;SDS011;28709;52.030;5.652;2022-08-01T09:37:51;0.65;;;0.60;;
43088;SDS011;28709;52.030;5.652;2022-08-01T09:40:59;0.80;;;0.40;;
43088;SDS011;28709;52.030;5.652;2022-08-01T09:43:26;0.50;;;0.47;;
43088;SDS011;28709;52.030;5.652;2022-08-01T09:45:55;0.43;;;0.30;;
43088;SDS011;28709;52.030;5.652;2022-08-01T09:48:21;0.20;;;0.20;;
43088;SDS011;28709;52.030;5.652;2022-08-01T09:50:49;0.20;;;0.20;;
43088;SDS011;28709;52.030;5.652;2022-08-01T09:53:16;0.38;;;0.20;;
43088;SDS011;28709;52.030;5.652;2022-08-01T09:55:42;0.52;;;0.52;;
43088;SDS011;28709;52.030;5.652;2022-08-01T09:58:09;1.70;;;0.70;;
43088;SDS011;28709;52.030;5.652;2022-08-01T10:00:36;0.90;;;0.40;;
43088;SDS011;28709;52.030;5.652;2022-08-01T10:08:13;1.40;;;0.50;;
43088;SDS011;28709;52.030;5.652;2022-08-01T10:10:39;2.10;;;0.70;;
43088;SDS011;28709;52.030;5.652;2022-08-01T10:13:05;0.73;;;0.40;;
43088;SDS011;28709;52.030;5.652;2022-08-01T10:15:33;0.73;;;0.60;;
43088;SDS011;28709;52.030;5.652;2022-08-01T10:18:00;0.38;;;0.32;;
43088;SDS011;28709;52.030;5.652;2022-08-01T10:20:29;0.38;;;0.38;;
43088;SDS011;28709;52.030;5.652;2022-08-01T10:22:57;0.28;;;0.22;;
43088;SDS011;28709;52.030;5.652;2022-08-01T10:25:27;0.40;;;0.30;;
43088;SDS011;28709;52.030;5.652;2022-08-01T10:27:54;0.50;;;0.50;;
43088;SDS011;28709;52.030;5.652;2022-08-01T10:30:22;1.30;;;0.65;;
43088;SDS011;28709;52.030;5.652;2022-08-01T10:32:49;1.30;;;0.60;;
43088;SDS011;28709;52.030;5.652;2022-08-01T10:35:17;0.40;;;0.30;;
43088;SDS011;28709;52.030;5.652;2022-08-01T10:37:44;0.60;;;0.38;;
43088;SDS011;28709;52.030;5.652;2022-08-01T10:40:14;1.25;;;0.68;;
43088;SDS011;28709;52.030;5.652;2022-08-01T10:42:41;1.08;;;0.57;;
43088;SDS011;28709;52.030;5.652;2022-08-01T10:45:08;1.27;;;0.70;;
43088;SDS011;28709;52.030;5.652;2022-08-01T10:47:45;2.10;;;0.63;;
43088;SDS011;28709;52.030;5.652;2022-08-01T10:50:52;1.20;;;0.80;;
43088;SDS011;28709;52.030;5.652;2022-08-01T10:53:18;1.48;;;0.70;;
43088;SDS011;28709;52.030;5.652;2022-08-01T10:58:30;3.08;;;0.90;;
43088;SDS011;28709;52.030;5.652;2022-08-01T11:01:16;1.77;;;0.68;;
43088;SDS011;28709;52.030;5.652;2022-08-01T11:03:45;1.95;;;0.75;;
43088;SDS011;28709;52.030;5.652;2022-08-01T11:09:05;0.20;;;0.20;;
43088;SDS011;28709;52.030;5.652;2022-08-01T11:11:56;1.42;;;1.33;;
43088;SDS011;28709;52.030;5.652;2022-08-01T11:14:29;0.70;;;0.40;;
43088;SDS011;28709;52.030;5.652;2022-08-01T11:16:56;1.80;;;0.50;;
43088;SDS011;28709;52.030;5.652;2022-08-01T11:28:23;1.45;;;0.60;;
43088;SDS011;28709;52.030;5.652;2022-08-01T11:30:52;1.17;;;0.60;;
43088;SDS011;28709;52.030;5.652;2022-08-01T11:38:36;0.60;;;0.60;;
43088;SDS011;28709;52.030;5.652;2022-08-01T11:49:27;1.95;;;0.60;;
43088;SDS011;28709;52.030;5.652;2022-08-01T11:52:04;0.20;;;0.20;;
43088;SDS011;28709;52.030;5.652;2022-08-01T11:54:31;0.65;;;0.40;;
43088;SDS011;28709;52.030;5.652;2022-08-01T11:56:58;1.20;;;0.60;;
43088;SDS011;28709;52.030;5.652;2022-08-01T11:59:25;1.10;;;0.50;;
43088;SDS011;28709;52.030;5.652;2022-08-01T12:01:53;0.43;;;0.40;;
43088;SDS011;28709;52.030;5.652;2022-08-01T12:04:19;0.65;;;0.50;;
43088;SDS011;28709;52.030;5.652;2022-08-01T12:06:45;1.05;;;0.40;;
43088;SDS011;28709;52.030;5.652;2022-08-01T12:09:14;1.13;;;0.52;;
43088;SDS011;28709;52.030;5.652;2022-08-01T12:11:48;1.05;;;0.52;;
43088;SDS011;28709;52.030;5.652;2022-08-01T12:14:18;0.30;;;0.30;;
43088;SDS011;28709;52.030;5.652;2022-08-01T12:16:49;0.88;;;0.50;;
43088;SDS011;28709;52.030;5.652;2022-08-01T12:19:22;0.50;;;0.40;;
43088;SDS011;28709;52.030;5.652;2022-08-01T12:24:37;0.52;;;0.52;;
43088;SDS011;28709;52.030;5.652;2022-08-01T12:27:04;0.40;;;0.38;;
43088;SDS011;28709;52.030;5.652;2022-08-01T12:29:41;1.00;;;0.65;;
43088;SDS011;28709;52.030;5.652;2022-08-01T12:32:22;0.45;;;0.30;;
43088;SDS011;28709;52.030;5.652;2022-08-01T12:34:51;1.30;;;0.52;;
43088;SDS011;28709;52.030;5.652;2022-08-01T12:37:18;2.35;;;0.68;;
43088;SDS011;28709;52.030;5.652;2022-08-01T12:39:44;0.50;;;0.40;;
43088;SDS011;28709;52.030;5.652;2022-08-01T12:42:11;1.48;;;0.40;;
43088;SDS011;28709;52.030;5.652;2022-08-01T12:44:37;0.65;;;0.45;;
43088;SDS011;28709;52.030;5.652;2022-08-01T12:47:04;2.17;;;0.60;;
43088;SDS011;28709;52.030;5.652;2022-08-01T12:49:35;1.80;;;0.60;;
43088;SDS011;28709;52.030;5.652;2022-08-01T12:52:01;0.85;;;0.32;;
43088;SDS011;28709;52.030;5.652;2022-08-01T12:54:28;1.20;;;0.77;;
43088;SDS011;28709;52.030;5.652;2022-08-01T12:56:53;1.35;;;0.60;;
43088;SDS011;28709;52.030;5.652;2022-08-01T12:59:26;1.95;;;0.68;;
43088;SDS011;28709;52.030;5.652;2022-08-01T13:01:54;1.77;;;0.65;;
43088;SDS011;28709;52.030;5.652;2022-08-01T13:04:20;2.42;;;0.57;;
43088;SDS011;28709;52.030;5.652;2022-08-01T13:06:47;3.63;;;0.93;;
43088;SDS011;28709;52.030;5.652;2022-08-01T13:09:17;0.70;;;0.60;;
43088;SDS011;28709;52.030;5.652;2022-08-01T13:11:43;0.43;;;0.20;;
43088;SDS011;28709;52.030;5.652;2022-08-01T13:14:10;1.42;;;0.60;;
43088;SDS011;28709;52.030;5.652;2022-08-01T13:16:52;0.63;;;0.50;;
43088;SDS011;28709;52.030;5.652;2022-08-01T13:19:17;0.65;;;0.30;;
43088;SDS011;28709;52.030;5.652;2022-08-01T13:21:53;0.95;;;0.47;;
43088;SDS011;28709;52.030;5.652;2022-08-01T13:24:23;1.90;;;0.77;;
43088;SDS011;28709;52.030;5.652;2022-08-01T13:27:00;0.85;;;0.40;;
43088;SDS011;28709;52.030;5.652;2022-08-01T13:29:29;2.88;;;0.63;;
43088;SDS011;28709;52.030;5.652;2022-08-01T13:32:14;0.65;;;0.30;;
43088;SDS011;28709;52.030;5.652;2022-08-01T13:34:44;0.77;;;0.38;;
43088;SDS011;28709;52.030;5.652;2022-08-01T13:37:09;0.57;;;0.47;;
43088;SDS011;28709;52.030;5.652;2022-08-01T13:39:35;1.17;;;0.45;;
43088;SDS011;28709;52.030;5.652;2022-08-01T13:42:12;0.20;;;0.20;;
43088;SDS011;28709;52.030;5.652;2022-08-01T13:44:40;1.20;;;0.38;;
43088;SDS011;28709;52.030;5.652;2022-08-01T13:47:07;0.20;;;0.20;;
43088;SDS011;28709;52.030;5.652;2022-08-01T13:49:33;1.00;;;0.38;;
43088;SDS011;28709;52.030;5.652;2022-08-01T13:51:59;0.38;;;0.38;;
43088;SDS011;28709;52.030;5.652;2022-08-01T13:54:26;1.48;;;0.70;;
43088;SDS011;28709;52.030;5.652;2022-08-01T13:56:52;0.43;;;0.40;;
43088;SDS011;28709;52.030;5.652;2022-08-01T13:59:18;3.58;;;0.77;;
43088;SDS011;28709;52.030;5.652;2022-08-01T14:01:44;1.63;;;0.40;;
43088;SDS011;28709;52.030;5.652;2022-08-01T14:04:10;0.52;;;0.30;;
43088;SDS011;28709;52.030;5.652;2022-08-01T14:06:35;0.95;;;0.40;;
43088;SDS011;28709;52.030;5.652;2022-08-01T14:09:02;1.38;;;0.25;;
43088;SDS011;28709;52.030;5.652;2022-08-01T14:11:28;0.20;;;0.20;;
43088;SDS011;28709;52.030;5.652;2022-08-01T14:13:54;2.60;;;0.40;;
43088;SDS011;28709;52.030;5.652;2022-08-01T14:16:20;0.75;;;0.40;;
43088;SDS011;28709;52.030;5.652;2022-08-01T14:18:47;1.25;;;0.40;;
43088;SDS011;28709;52.030;5.652;2022-08-01T14:21:12;0.10;;;0.10;;
43088;SDS011;28709;52.030;5.652;2022-08-01T14:23:39;0.47;;;0.25;;
43088;SDS011;28709;52.030;5.652;2022-08-01T14:26:05;0.38;;;0.35;;
43088;SDS011;28709;52.030;5.652;2022-08-01T14:28:31;0.45;;;0.20;;
43088;SDS011;28709;52.030;5.652;2022-08-01T14:30:57;0.17;;;0.17;;
43088;SDS011;28709;52.030;5.652;2022-08-01T14:33:23;0.45;;;0.20;;
43088;SDS011;28709;52.030;5.652;2022-08-01T14:35:49;0.25;;;0.25;;
43088;SDS011;28709;52.030;5.652;2022-08-01T14:38:14;1.02;;;0.60;;
43088;SDS011;28709;52.030;5.652;2022-08-01T14:40:40;0.25;;;0.25;;
43088;SDS011;28709;52.030;5.652;2022-08-01T14:43:06;0.47;;;0.25;;
43088;SDS011;28709;52.030;5.652;2022-08-01T14:45:31;0.63;;;0.40;;
43088;SDS011;28709;52.030;5.652;2022-08-01T14:47:58;0.13;;;0.10;;
43088;SDS011;28709;52.030;5.652;2022-08-01T14:50:23;1.00;;;0.38;;
43088;SDS011;28709;52.030;5.652;2022-08-01T14:52:51;0.20;;;0.20;;
43088;SDS011;28709;52.030;5.652;2022-08-01T14:55:18;0.57;;;0.35;;
43088;SDS011;28709;52.030;5.652;2022-08-01T14:57:48;0.90;;;0.47;;
43088;SDS011;28709;52.030;5.652;2022-08-01T15:00:14;0.40;;;0.20;;
43088;SDS011;28709;52.030;5.652;2022-08-01T15:02:40;0.77;;;0.40;;
43088;SDS011;28709;52.030;5.652;2022-08-01T15:05:06;0.50;;;0.30;;
43088;SDS011;28709;52.030;5.652;2022-08-01T15:07:33;0.52;;;0.30;;
43088;SDS011;28709;52.030;5.652;2022-08-01T15:09:59;0.22;;;0.22;;
43088;SDS011;28709;52.030;5.652;2022-08-01T15:12:25;0.45;;;0.20;;
43088;SDS011;28709;52.030;5.652;2022-08-01T15:14:51;0.20;;;0.20;;
43088;SDS011;28709;52.030;5.652;2022-08-01T15:17:20;0.30;;;0.17;;
43088;SDS011;28709;52.030;5.652;2022-08-01T15:19:49;0.45;;;0.30;;
43088;SDS011;28709;52.030;5.652;2022-08-01T15:22:19;0.30;;;0.10;;
43088;SDS011;28709;52.030;5.652;2022-08-01T15:24:46;1.77;;;0.50;;
43088;SDS011;28709;52.030;5.652;2022-08-01T15:27:13;1.30;;;0.40;;
43088;SDS011;28709;52.030;5.652;2022-08-01T15:29:39;1.23;;;0.40;;
43088;SDS011;28709;52.030;5.652;2022-08-01T15:32:06;0.73;;;0.30;;
43088;SDS011;28709;52.030;5.652;2022-08-01T15:34:33;0.10;;;0.10;;
43088;SDS011;28709;52.030;5.652;2022-08-01T15:36:59;0.80;;;0.50;;
43088;SDS011;28709;52.030;5.652;2022-08-01T15:39:25;1.20;;;0.38;;
43088;SDS011;28709;52.030;5.652;2022-08-01T15:41:51;0.50;;;0.30;;